createdAt,value
2023-02-27T00:01:03.553Z,49.02
2023-02-27T00:06:05.087Z,48.58
2023-02-27T00:11:06.538Z,47.33
2023-02-27T00:16:08.283Z,48.92
2023-02-27T00:21:09.776Z,49.23
2023-02-27T00:26:11.295Z,48.43
2023-02-27T00:31:12.839Z,48.16
2023-02-27T00:36:14.512Z,48.62
2023-02-27T00:41:15.984Z,49.32
2023-02-27T00:46:17.506Z,49.09
2023-02-27T00:51:20.236Z,48.56
2023-02-27T00:56:21.719Z,47.92
2023-02-27T01:01:23.191Z,48.87
2023-02-27T01:06:24.664Z,48.66
2023-02-27T01:11:26.419Z,47.31
2023-02-27T01:16:28.205Z,49.73
2023-02-27T01:21:29.672Z,49.83
2023-02-27T01:26:31.134Z,48.61
2023-02-27T01:31:32.660Z,51.73
2023-02-27T01:36:34.135Z,48.58
2023-02-27T01:41:35.770Z,47.30
2023-02-27T01:46:37.276Z,48.16
2023-02-27T01:51:45.317Z,48.32
2023-02-27T01:56:46.794Z,46.33
2023-02-27T02:01:48.273Z,48.00
2023-02-27T02:06:51.074Z,46.75
2023-02-27T02:11:52.690Z,47.02
2023-02-27T02:17:13.783Z,47.67
2023-02-27T02:22:23.974Z,48.32
2023-02-27T02:27:32.125Z,46.72
2023-02-27T02:32:51.815Z,48.66
2023-02-27T02:37:59.149Z,47.96
2023-02-27T02:43:22.713Z,47.40
2023-02-27T02:48:28.278Z,45.92
2023-02-27T02:53:39.315Z,47.07
2023-02-27T02:58:52.369Z,46.54
2023-02-27T03:03:56.305Z,45.84
2023-02-27T03:09:00.026Z,46.34
2023-02-27T03:14:20.344Z,46.58
2023-02-27T03:19:55.700Z,46.12
2023-02-27T03:24:58.255Z,46.18
2023-02-27T03:30:09.658Z,45.27
2023-02-27T03:35:12.189Z,46.89
2023-02-27T03:40:13.596Z,47.65
2023-02-27T03:45:19.521Z,46.58
2023-02-27T03:50:20.990Z,46.62
2023-02-27T03:55:25.142Z,46.92
2023-02-27T04:00:26.609Z,46.79
2023-02-27T04:05:28.332Z,46.45
2023-02-27T04:10:57.435Z,46.40
2023-02-27T04:16:17.977Z,45.83
2023-02-27T04:21:34.916Z,45.85
2023-02-27T04:26:49.181Z,46.15
2023-02-27T04:32:02.502Z,45.25
2023-02-27T04:37:16.676Z,45.04
2023-02-27T04:42:20.545Z,45.56
2023-02-27T04:47:22.010Z,45.20
2023-02-27T04:52:37.262Z,44.11
2023-02-27T04:57:50.086Z,45.08
2023-02-27T05:03:00.813Z,47.38
2023-02-27T05:08:07.047Z,45.91
2023-02-27T05:13:28.913Z,44.29
2023-02-27T05:18:30.371Z,44.49
2023-02-27T05:23:53.216Z,44.89
2023-02-27T05:29:01.228Z,45.15
2023-02-27T05:34:11.986Z,44.68
2023-02-27T05:39:13.448Z,44.37
2023-02-27T05:44:20.548Z,42.89
2023-02-27T05:49:31.596Z,43.96
2023-02-27T05:54:56.137Z,45.46
2023-02-27T06:00:16.212Z,45.13
2023-02-27T06:05:18.033Z,44.63
2023-02-27T06:10:19.995Z,44.10
2023-02-27T06:15:22.945Z,43.97
2023-02-27T06:20:24.399Z,44.50
2023-02-27T06:25:25.873Z,44.08
2023-02-27T06:30:27.353Z,44.42
2023-02-27T06:35:29.390Z,44.38
2023-02-27T06:40:30.848Z,44.45
2023-02-27T06:45:32.325Z,43.78
2023-02-27T06:50:33.778Z,43.63
2023-02-27T06:55:35.278Z,44.77
2023-02-27T07:00:36.724Z,44.41
2023-02-27T07:05:38.171Z,44.86
2023-02-27T07:10:40.246Z,45.16
2023-02-27T07:15:41.730Z,44.79
2023-02-27T07:20:43.197Z,45.67
2023-02-27T07:25:44.646Z,46.45
2023-02-27T07:30:46.475Z,46.71
2023-02-27T07:35:48.265Z,46.66
2023-02-27T07:40:50.094Z,46.98
2023-02-27T07:45:51.799Z,47.04
2023-02-27T07:50:53.294Z,46.75
2023-02-27T07:55:54.760Z,45.44
2023-02-27T08:00:56.248Z,46.37
2023-02-27T08:05:57.710Z,46.31
2023-02-27T08:10:59.398Z,46.13
2023-02-27T08:16:00.891Z,45.60
2023-02-27T08:21:04.866Z,44.70
2023-02-27T08:26:06.343Z,44.35
2023-02-27T08:31:07.891Z,44.71
2023-02-27T08:36:10.099Z,45.69
2023-02-27T08:41:11.648Z,46.79
2023-02-27T08:46:13.403Z,46.32
2023-02-27T08:51:14.901Z,45.79
2023-02-27T08:56:16.364Z,45.83
2023-02-27T09:01:18.265Z,45.25
2023-02-27T09:06:19.752Z,45.52
2023-02-27T09:11:21.647Z,45.89
2023-02-27T09:16:23.685Z,45.40
2023-02-27T09:21:25.252Z,46.39
2023-02-27T09:26:41.956Z,45.85
2023-02-27T09:31:46.678Z,46.31
2023-02-27T09:36:48.280Z,45.92
2023-02-27T09:41:52.985Z,47.19
2023-02-27T09:46:54.491Z,45.34
2023-02-27T09:51:55.959Z,46.58
2023-02-27T09:56:59.296Z,47.32
2023-02-27T10:02:08.856Z,46.62
2023-02-27T10:07:10.150Z,46.20
2023-02-27T10:12:46.095Z,46.75
2023-02-27T10:18:16.529Z,46.28
2023-02-27T10:23:57.716Z,46.15
2023-02-27T10:29:00.494Z,45.54
2023-02-27T10:34:02.600Z,45.06
2023-02-27T10:39:06.768Z,45.32
2023-02-27T10:44:10.431Z,45.04
2023-02-27T10:49:19.046Z,45.82
2023-02-27T10:54:23.611Z,46.17
2023-02-27T10:59:34.048Z,46.12
2023-02-27T11:04:37.810Z,45.52
2023-02-27T11:09:39.364Z,45.36
2023-02-27T11:14:50.705Z,44.68
2023-02-27T11:19:52.181Z,44.97
2023-02-27T11:24:58.164Z,46.94
2023-02-27T11:30:03.222Z,47.02
2023-02-27T11:35:05.553Z,46.76
2023-02-27T11:40:14.674Z,46.48
2023-02-27T11:46:04.304Z,46.81
2023-02-27T11:50:57.755Z,46.14
2023-02-27T11:56:00.035Z,45.99
2023-02-27T12:01:03.846Z,46.35
2023-02-27T12:06:06.585Z,46.03
2023-02-27T12:11:15.978Z,45.84
2023-02-27T12:16:26.619Z,49.05
2023-02-27T12:21:31.958Z,47.00
2023-02-27T12:26:38.256Z,49.33
2023-02-27T12:31:50.457Z,48.23
2023-02-27T12:36:53.123Z,49.14
2023-02-27T12:42:31.678Z,46.88
2023-02-27T12:47:47.344Z,47.72
2023-02-27T12:53:01.252Z,48.13
2023-02-27T12:58:17.568Z,48.92
2023-02-27T13:04:00.790Z,48.11
2023-02-27T13:09:42.039Z,50.94
2023-02-27T13:14:47.514Z,49.19
2023-02-27T13:20:16.854Z,50.43
2023-02-27T13:25:18.321Z,50.50
2023-02-27T13:30:22.809Z,51.40
2023-02-27T13:35:48.266Z,52.44
2023-02-27T13:40:49.760Z,51.04
2023-02-27T13:46:00.881Z,51.15
2023-02-27T13:51:02.407Z,51.80
2023-02-27T13:56:22.748Z,50.93
2023-02-27T14:01:27.454Z,51.57
2023-02-27T14:06:29.183Z,51.34
2023-02-27T14:11:34.310Z,51.37
2023-02-27T14:16:39.007Z,52.41
2023-02-27T14:21:57.662Z,51.29
2023-02-27T14:26:59.213Z,50.53
2023-02-27T14:32:03.812Z,50.80
2023-02-27T14:37:07.089Z,49.53
2023-02-27T14:42:43.834Z,50.64
2023-02-27T14:47:45.789Z,52.24
2023-02-27T14:52:47.293Z,52.96
2023-02-27T14:58:00.973Z,52.50
2023-02-27T15:03:17.870Z,52.37
2023-02-27T15:08:24.139Z,51.32
2023-02-27T15:13:28.445Z,51.55
2023-02-27T15:18:29.976Z,52.16
2023-02-27T15:23:31.465Z,52.65
2023-02-27T15:28:37.432Z,52.69
2023-02-27T15:33:39.826Z,52.46
2023-02-27T15:38:41.299Z,52.91
2023-02-27T15:43:42.799Z,52.27
2023-02-27T15:48:44.262Z,52.54
2023-02-27T15:53:49.706Z,52.76
2023-02-27T15:58:53.791Z,52.17
2023-02-27T16:03:57.476Z,52.56
2023-02-27T16:09:04.303Z,52.12
2023-02-27T16:14:06.005Z,52.85
2023-02-27T16:19:27.293Z,51.91
2023-02-27T16:24:30.605Z,52.28
2023-02-27T16:29:34.844Z,52.07
2023-02-27T16:34:45.533Z,52.00
2023-02-27T16:39:49.086Z,52.49
2023-02-27T16:44:50.564Z,53.13
2023-02-27T16:49:52.037Z,55.33
2023-02-27T16:54:53.499Z,54.78
2023-02-27T16:59:54.982Z,53.78
2023-02-27T17:04:56.532Z,54.54
2023-02-27T17:09:58.014Z,54.53
2023-02-27T17:14:59.513Z,54.88
2023-02-27T17:20:01.829Z,54.58
2023-02-27T17:25:03.444Z,54.62
2023-02-27T17:30:05.754Z,54.99
2023-02-27T17:35:07.496Z,54.34
2023-02-27T17:40:09.948Z,53.18
2023-02-27T17:45:11.540Z,53.24
2023-02-27T17:50:13.166Z,53.85
2023-02-27T17:55:16.523Z,54.61
2023-02-27T18:00:18.389Z,54.52
2023-02-27T18:05:19.935Z,54.76
2023-02-27T18:10:21.388Z,54.80
2023-02-27T18:15:22.851Z,55.28
2023-02-27T18:20:24.326Z,55.59
2023-02-27T18:25:26.170Z,54.71
2023-02-27T18:30:30.781Z,55.10
2023-02-27T18:35:32.402Z,54.64
2023-02-27T18:40:33.894Z,55.53
2023-02-27T18:45:35.425Z,55.68
2023-02-27T18:50:36.961Z,55.80
2023-02-27T18:55:39.409Z,55.13
2023-02-27T19:00:41.888Z,55.67
2023-02-27T19:05:43.461Z,55.25
2023-02-27T19:10:45.004Z,55.56
2023-02-27T19:15:46.567Z,55.69
2023-02-27T19:20:48.067Z,55.91
2023-02-27T19:25:57.078Z,55.74
2023-02-27T19:30:58.588Z,56.24
2023-02-27T19:36:00.923Z,56.09
2023-02-27T19:41:03.552Z,56.63
2023-02-27T19:46:06.282Z,56.56
2023-02-27T19:51:09.122Z,56.46
2023-02-27T19:56:17.742Z,56.32
2023-02-27T20:01:32.729Z,56.28
2023-02-27T20:06:41.784Z,56.33
2023-02-27T20:11:43.832Z,56.03
2023-02-27T20:16:45.574Z,56.24
2023-02-27T20:21:47.133Z,56.61
2023-02-27T20:26:49.988Z,56.63
2023-02-27T20:31:52.620Z,57.50
2023-02-27T20:36:54.919Z,58.52
2023-02-27T20:41:56.395Z,59.06
2023-02-27T20:46:57.868Z,58.58
2023-02-27T20:51:59.429Z,57.48
2023-02-27T20:57:00.909Z,57.98
2023-02-27T21:02:06.544Z,57.52
2023-02-27T21:07:09.939Z,57.80
2023-02-27T21:12:11.415Z,58.66
2023-02-27T21:17:13.684Z,57.46
2023-02-27T21:22:16.737Z,57.01
2023-02-27T21:27:20.721Z,56.56
2023-02-27T21:32:22.329Z,56.83
2023-02-27T21:37:23.946Z,57.09
2023-02-27T21:42:25.424Z,56.53
2023-02-27T21:47:28.322Z,57.20
2023-02-27T21:52:31.519Z,57.05
2023-02-27T21:57:32.833Z,56.26
2023-02-27T22:02:34.494Z,56.13
2023-02-27T22:07:37.278Z,56.19
2023-02-27T22:12:38.919Z,56.12
2023-02-27T22:17:40.492Z,55.22
2023-02-27T22:22:41.958Z,55.33
2023-02-27T22:27:43.470Z,55.14
2023-02-27T22:32:44.942Z,55.59
2023-02-27T22:37:46.484Z,55.71
2023-02-27T22:42:48.051Z,55.31
2023-02-27T22:47:49.528Z,55.33
2023-02-27T22:52:51.003Z,55.03
2023-02-27T22:57:52.587Z,55.78
2023-02-27T23:02:54.285Z,57.13
2023-02-27T23:07:55.779Z,58.47
2023-02-27T23:12:57.253Z,58.59
2023-02-27T23:17:58.863Z,56.82
2023-02-27T23:23:00.329Z,56.76
2023-02-27T23:28:02.121Z,56.26
2023-02-27T23:33:03.668Z,56.18
2023-02-27T23:38:05.190Z,57.06
2023-02-27T23:43:06.672Z,56.66
2023-02-27T23:48:08.658Z,56.58
2023-02-27T23:53:10.802Z,57.87
2023-02-27T23:58:12.350Z,58.33
